CFG3654 EDDL-LIMJ
Flight info
| Callsign | CFG3654 |
|---|---|
| Flight time | N/A |
| Altitude | 35000 |
| Route | DODEN7Z/05R DODEN Y852 NATOR DCT TRA DCT RIPUS DCT GERSA DCT SOSON DCT ODINA DCT SRN DCT VOG/N0379F190 M858 RUCFO |
| Aircraft | A321/M-SDE2E3FGHIJ1RWXYZ/LB1 |
Departure
| Time | 2026-04-30 22:41 |
|---|---|
| Airport | Düsseldorf Airport (EDDL) |
Arrival
| Time | N/A |
|---|---|
| Airport | Genoa Cristoforo Colombo Airport (LIMJ) |
| Time | Latitude | Longitude | Altitude | Speed | Heading |
|---|---|---|---|---|---|
| 2026-04-30 21:53 | 51.27912 | 6.76260 | 129 ft | 0 kts | 61° |
| 2026-04-30 22:33 | 51.27909 | 6.76251 | 128 ft | 4 kts | 61° |
| 2026-04-30 22:33 | 51.27883 | 6.76176 | 124 ft | 4 kts | 61° |
| 2026-04-30 22:34 | 51.27846 | 6.76073 | 126 ft | 4 kts | 48° |
| 2026-04-30 22:35 | 51.27802 | 6.76044 | 124 ft | 4 kts | 1° |
| 2026-04-30 22:36 | 51.27762 | 6.76043 | 126 ft | 0 kts | 1° |
| 2026-04-30 22:37 | 51.27770 | 6.76043 | 126 ft | 5 kts | 1° |
| 2026-04-30 22:37 | 51.27887 | 6.76047 | 128 ft | 9 kts | 1° |
| 2026-04-30 22:38 | 51.28078 | 6.76042 | 128 ft | 12 kts | 343° |
| 2026-04-30 22:38 | 51.28028 | 6.75809 | 127 ft | 17 kts | 233° |
| 2026-04-30 22:39 | 51.27955 | 6.75656 | 125 ft | 18 kts | 233° |
| 2026-04-30 22:39 | 51.27928 | 6.75279 | 122 ft | 13 kts | 334° |
| 2026-04-30 22:40 | 51.28621 | 6.76587 | 127 ft | 132 kts | 52° |
| 2026-04-30 22:41 | 51.30556 | 6.80679 | 1450 ft | 168 kts | 61° |
| 2026-04-30 22:41 | 51.32062 | 6.84143 | 1781 ft | 207 kts | 75° |
| 2026-04-30 22:42 | 51.29288 | 6.92299 | 4006 ft | 234 kts | 133° |
| 2026-04-30 22:43 | 51.27014 | 6.96231 | 5387 ft | 248 kts | 132° |
| 2026-04-30 22:43 | 51.24634 | 7.00345 | 6853 ft | 256 kts | 131° |
| 2026-04-30 22:44 | 51.22188 | 7.04573 | 8227 ft | 263 kts | 131° |
| 2026-04-30 22:45 | 51.17091 | 7.13359 | 10700 ft | 287 kts | 131° |
| 2026-04-30 22:45 | 51.14179 | 7.18379 | 10952 ft | 330 kts | 131° |
| 2026-04-30 22:46 | 51.10878 | 7.24060 | 11207 ft | 368 kts | 131° |
| 2026-04-30 22:47 | 51.03603 | 7.36458 | 12880 ft | 392 kts | 131° |
| 2026-04-30 22:47 | 50.99852 | 7.42833 | 13936 ft | 397 kts | 131° |
| 2026-04-30 22:48 | 50.96062 | 7.49285 | 14872 ft | 402 kts | 131° |
| 2026-04-30 22:49 | 50.90287 | 7.59061 | 16185 ft | 411 kts | 131° |
| 2026-04-30 22:49 | 50.84358 | 7.69063 | 17506 ft | 420 kts | 130° |
| 2026-04-30 22:50 | 50.76276 | 7.82632 | 19174 ft | 430 kts | 131° |
| 2026-04-30 22:51 | 50.72135 | 7.89541 | 19905 ft | 435 kts | 131° |
| 2026-04-30 22:51 | 50.67944 | 7.96515 | 20628 ft | 440 kts | 130° |
| 2026-04-30 22:52 | 50.65826 | 8.00037 | 20932 ft | 444 kts | 130° |
| 2026-04-30 22:52 | 50.61023 | 8.06275 | 21612 ft | 456 kts | 147° |
| 2026-04-30 22:53 | 50.55076 | 8.09820 | 22270 ft | 469 kts | 166° |
| 2026-04-30 22:53 | 50.48531 | 8.10850 | 22928 ft | 476 kts | 172° |
| 2026-04-30 22:53 | 50.45221 | 8.11282 | 23254 ft | 478 kts | 172° |
| 2026-04-30 22:54 | 50.38552 | 8.12156 | 23910 ft | 483 kts | 172° |
| 2026-04-30 22:55 | 50.28515 | 8.13387 | 24881 ft | 484 kts | 173° |
| 2026-04-30 22:55 | 50.21811 | 8.14194 | 25609 ft | 482 kts | 173° |
| 2026-04-30 22:56 | 50.15127 | 8.15021 | 26350 ft | 481 kts | 173° |
| 2026-04-30 22:56 | 50.05211 | 8.16240 | 27526 ft | 477 kts | 173° |
| 2026-04-30 22:57 | 49.98601 | 8.17036 | 28272 ft | 476 kts | 173° |
| 2026-04-30 22:57 | 49.92011 | 8.17832 | 29004 ft | 474 kts | 173° |
| 2026-04-30 22:58 | 49.85439 | 8.18632 | 29736 ft | 474 kts | 173° |
| 2026-04-30 22:59 | 49.75612 | 8.19833 | 30671 ft | 474 kts | 173° |
| 2026-04-30 22:59 | 49.65754 | 8.21017 | 31583 ft | 473 kts | 173° |